ロサンゼルス の空港の天気 - METARとTAF

ロサンゼルス国際空港 ( KLAX / LAX ) - アメリカ カリフォルニア州ロサンゼルス
飛行場実況気象(Metar)
観測時間02/21 09:53 PST (02/21 17:53 UTC)
風向・風速西 4m/s
視程10km以上
天気現象
少しの雲 雲底高度 820m
少しの雲 雲底高度 1280m
全天の4割程度の雲 雲底高度 4270m
全天の8割程度の雲 雲底高度 5490m
気温11.7℃
湿度48%
気圧1003.5hPa
METARKLAX 211753Z 26007KT 10SM FEW027 FEW042 SCT140 BKN180 12/01 A2964 RMK AO2 SLP035 T01170011 10117 20072 50004 /
過去の天気等 Google飛行場航空写真 Wunderground天気予報

過去48時間のMETAR

飛行場予報(TAF)
発表時間: 2/21 09:48 PST (2/21 17:48 UTC)
予報対象時間: 21日10時 PST ~ 22日16時 PST
風向・風速不定 3m/s
視程10km以上
少しの雲 雲底高度 760m
全天の8割程度の雲 雲底高度 5490m
21日13時 PST から
風向・風速西 8m/s
視程10km以上
天気現象周辺でしゅう雨
全天の4割程度の雲 雲底高度 1070m
全天の8割程度の雲 雲底高度 1830m
21日18時 PST から
風向・風速西北西 4m/s
視程10km以上
なし
21日22時 PST から
風向・風速不定 2m/s
視程10km以上
なし
22日7時 PST から
風向・風速静穏
視程10km以上
なし
22日12時 PST から
風向・風速西 5m/s
視程10km以上
なし
KLAX 211748Z 2118/2224 VRB05KT P6SM FEW025 BKN180
FM212100 27015KT P6SM VCSH SCT035 BKN060
FM220200 30008KT P6SM SKC
FM220600 VRB03KT P6SM SKC
FM221500 00000KT P6SM SKC
FM222000 26010KT P6SM SKC